Time;durP1;ratioP1;P1;durP2;ratioP2;P2;SDS_P1;SDS_P2;PMS_P1;PMS_P2;Temp;Humidity;BMP_temperature;BMP_pressure;BME280_temperature;BME280_humidity;BME280_pressure;Samples;Min_cycle;Max_cycle;Signal;HPM_P1;HPM_P2
2023/10/06 00:00:50;;;;;;;5.00;3.50;;;9.50;1.00;;;;;;5032529;28;20454;-86
2023/10/06 00:03:16;;;;;;;5.13;3.80;;;9.70;1.00;;;;;;5031475;28;20418;-86
2023/10/06 00:05:44;;;;;;;4.53;3.50;;;9.50;1.00;;;;;;5031383;28;20791;-86
2023/10/06 00:10:55;;;;;;;5.43;3.30;;;9.60;1.00;;;;;;5032546;28;20422;-86
2023/10/06 00:13:29;;;;;;;4.70;3.20;;;9.70;1.00;;;;;;5026412;28;20420;-86
2023/10/06 00:15:56;;;;;;;3.13;2.83;;;9.20;1.00;;;;;;5024744;28;20430;-86
2023/10/06 00:18:23;;;;;;;4.13;3.25;;;10.80;1.00;;;;;;5030967;28;20387;-86
2023/10/06 00:20:49;;;;;;;3.83;3.17;;;9.70;1.00;;;;;;5031244;28;20399;-87
2023/10/06 00:23:22;;;;;;;6.37;3.90;;;9.00;1.00;;;;;;5030968;28;20398;-86
2023/10/06 00:25:52;;;;;;;5.30;3.50;;;9.30;1.00;;;;;;5030996;28;20395;-87
2023/10/06 00:28:26;;;;;;;3.60;3.20;;;9.20;1.00;;;;;;5030924;28;20427;-87
2023/10/06 00:30:56;;;;;;;4.97;3.70;;;9.20;1.00;;;;;;5031409;28;20387;-86
2023/10/06 00:33:31;;;;;;;5.10;3.40;;;9.30;1.00;;;;;;5031146;28;20394;-87
2023/10/06 00:35:57;;;;;;;3.92;3.05;;;9.10;1.00;;;;;;5032033;28;20372;-88
2023/10/06 00:38:23;;;;;;;4.40;3.63;;;9.10;1.00;;;;;;5030684;28;20402;-87
2023/10/06 00:40:51;;;;;;;5.50;3.85;;;9.40;1.00;;;;;;5030320;28;20410;-88
2023/10/06 00:43:43;;;;;;;4.40;3.30;;;9.90;1.00;;;;;;5044851;28;20379;-87
2023/10/06 00:46:10;;;;;;;5.53;3.63;;;8.90;1.00;;;;;;5031291;28;20494;-87
2023/10/06 00:48:38;;;;;;;4.90;3.97;;;9.00;1.00;;;;;;5031692;28;20981;-86
2023/10/06 00:51:09;;;;;;;4.45;3.47;;;9.10;1.00;;;;;;5010731;28;20432;-87
2023/10/06 00:53:35;;;;;;;5.85;4.03;;;8.50;1.00;;;;;;5011170;28;20935;-88
2023/10/06 00:56:10;;;;;;;5.30;4.10;;;8.40;1.00;;;;;;5010990;28;20486;-88
2023/10/06 00:58:41;;;;;;;6.55;3.80;;;11.20;1.00;;;;;;5025005;28;20403;-87
2023/10/06 01:01:16;;;;;;;6.20;3.95;;;9.40;1.00;;;;;;5020313;28;20904;-89
2023/10/06 01:03:49;;;;;;;4.38;3.60;;;9.30;1.00;;;;;;5011967;28;20427;-88
2023/10/06 01:06:22;;;;;;;6.50;4.00;;;8.30;1.00;;;;;;5021290;28;20407;-89
2023/10/06 01:08:55;;;;;;;4.63;3.40;;;8.00;1.00;;;;;;5012790;28;20393;-88
2023/10/06 01:11:26;;;;;;;4.25;3.85;;;8.30;1.00;;;;;;5031120;28;20388;-90
2023/10/06 01:13:56;;;;;;;6.15;4.00;;;8.80;1.00;;;;;;5011475;28;20389;-88
2023/10/06 01:16:31;;;;;;;4.97;3.42;;;9.00;1.00;;;;;;5010689;28;20892;-87
2023/10/06 01:19:14;;;;;;;4.80;3.40;;;9.20;1.00;;;;;;5015932;28;20397;-89
2023/10/06 01:21:42;;;;;;;5.60;4.00;;;8.50;1.00;;;;;;5024188;28;20434;-88
2023/10/06 01:24:12;;;;;;;4.10;3.40;;;9.00;1.00;;;;;;5032531;28;20411;-89
2023/10/06 01:26:43;;;;;;;6.20;4.03;;;8.70;1.00;;;;;;5026050;28;21080;-89
2023/10/06 01:29:10;;;;;;;4.18;3.75;;;8.40;1.00;;;;;;5011068;28;20557;-87
2023/10/06 01:31:41;;;;;;;4.85;3.80;;;9.10;1.00;;;;;;5010464;28;20471;-89
2023/10/06 01:34:12;;;;;;;6.38;3.90;;;9.30;1.00;;;;;;5011400;28;20411;-87
2023/10/06 01:36:38;;;;;;;4.93;3.60;;;8.60;1.00;;;;;;5010215;28;20393;-87
2023/10/06 01:39:05;;;;;;;6.03;3.70;;;9.00;1.00;;;;;;5020367;28;20565;-87
2023/10/06 01:41:37;;;;;;;5.80;4.40;;;9.10;1.00;;;;;;5030112;28;20922;-89
2023/10/06 01:44:10;;;;;;;5.50;3.80;;;8.60;1.00;;;;;;5030297;28;20995;-89
2023/10/06 01:46:39;;;;;;;4.25;3.85;;;10.60;1.00;;;;;;5009639;28;20389;-89
2023/10/06 01:49:10;;;;;;;6.20;3.60;;;8.40;1.00;;;;;;5012169;28;20400;-88
2023/10/06 01:51:38;;;;;;;4.63;3.70;;;8.70;1.00;;;;;;5029836;28;20388;-89
2023/10/06 01:54:06;;;;;;;4.82;3.60;;;8.60;1.00;;;;;;5025371;28;20385;-89
2023/10/06 01:56:34;;;;;;;5.90;3.50;;;9.20;1.00;;;;;;5026365;28;20487;-89
2023/10/06 01:59:01;;;;;;;5.93;3.80;;;8.50;1.00;;;;;;5029589;28;20427;-89
2023/10/06 02:01:27;;;;;;;4.90;3.50;;;8.50;1.00;;;;;;5026584;28;20847;-89
2023/10/06 02:03:52;;;;;;;6.03;4.10;;;8.50;1.00;;;;;;5016011;28;20427;-88
2023/10/06 02:06:18;;;;;;;6.20;4.00;;;8.60;1.00;;;;;;5032046;28;20413;-87
2023/10/06 02:08:49;;;;;;;5.47;3.40;;;7.90;1.00;;;;;;5011862;28;20861;-88
2023/10/06 02:11:15;;;;;;;4.78;3.50;;;8.70;1.00;;;;;;5010917;28;20715;-88
2023/10/06 02:13:40;;;;;;;4.28;3.40;;;8.20;1.00;;;;;;5011910;28;20385;-88
2023/10/06 02:16:06;;;;;;;5.17;4.20;;;7.80;1.00;;;;;;5010638;28;20396;-88
2023/10/06 02:18:36;;;;;;;7.43;3.88;;;7.60;1.00;;;;;;5009889;28;20419;-88
2023/10/06 02:21:11;;;;;;;7.68;3.58;;;8.30;1.00;;;;;;5012538;28;20406;-88
2023/10/06 02:23:38;;;;;;;6.10;4.07;;;7.90;1.00;;;;;;5029105;28;20411;-88
2023/10/06 02:26:09;;;;;;;5.23;3.90;;;8.20;1.00;;;;;;5019673;28;20436;-88
2023/10/06 02:28:40;;;;;;;4.32;3.40;;;8.20;1.00;;;;;;5015814;28;20392;-89
2023/10/06 02:31:06;;;;;;;5.05;3.90;;;10.30;1.00;;;;;;5010223;28;20387;-88
2023/10/06 02:33:39;;;;;;;6.45;4.18;;;7.60;1.00;;;;;;5017985;28;20412;-87
2023/10/06 02:36:17;;;;;;;5.25;3.70;;;7.70;1.00;;;;;;5039010;28;20459;-88
2023/10/06 02:38:46;;;;;;;4.60;3.55;;;7.20;1.00;;;;;;5046442;28;20482;-89
2023/10/06 02:41:20;;;;;;;5.40;3.85;;;8.00;1.00;;;;;;5039964;28;20391;-87
2023/10/06 02:43:51;;;;;;;5.97;3.90;;;8.50;1.00;;;;;;5028814;28;20500;-88
2023/10/06 02:46:20;;;;;;;4.80;3.60;;;7.60;1.00;;;;;;5011728;28;20955;-88
2023/10/06 02:48:49;;;;;;;6.00;3.97;;;8.30;1.00;;;;;;5009368;28;20407;-88
2023/10/06 02:51:32;;;;;;;6.93;4.40;;;6.70;1.00;;;;;;5009118;28;21006;-87
2023/10/06 02:54:47;;;;;;;6.55;3.60;;;7.90;1.00;;;;;;5028263;28;20404;-87
2023/10/06 02:56:47;;;;;;;6.43;3.70;;;8.20;1.00;;;;;;5000603;28;20399;-88
2023/10/06 02:59:22;;;;;;;6.57;3.80;;;7.90;1.00;;;;;;5012710;28;20392;-88
2023/10/06 03:02:06;;;;;;;6.13;3.70;;;9.10;1.00;;;;;;5013468;28;20409;-88
2023/10/06 03:04:36;;;;;;;5.07;3.83;;;8.00;1.00;;;;;;5013611;28;20436;-89
2023/10/06 03:07:04;;;;;;;6.43;3.50;;;8.50;1.00;;;;;;5012931;28;20393;-87
2023/10/06 03:09:44;;;;;;;5.35;4.10;;;8.50;1.00;;;;;;5015211;28;20443;-88
2023/10/06 03:12:15;;;;;;;5.45;3.50;;;8.80;1.00;;;;;;5016056;28;20397;-88
2023/10/06 03:14:42;;;;;;;6.10;3.50;;;8.60;1.00;;;;;;5014018;28;20488;-87
2023/10/06 03:17:08;;;;;;;4.32;3.28;;;8.50;1.00;;;;;;5015095;28;20408;-88
2023/10/06 03:19:36;;;;;;;4.32;3.40;;;8.80;1.00;;;;;;5015211;28;20435;-90
2023/10/06 03:22:06;;;;;;;5.15;3.80;;;10.50;1.00;;;;;;5012099;28;20401;-87
2023/10/06 03:24:33;;;;;;;5.93;3.53;;;8.40;1.00;;;;;;5013826;28;20404;-87
2023/10/06 03:26:58;;;;;;;4.80;3.60;;;8.00;1.00;;;;;;5013686;28;20416;-87
2023/10/06 03:29:39;;;;;;;6.10;4.00;;;8.40;1.00;;;;;;5016047;28;20525;-88
2023/10/06 03:32:11;;;;;;;5.25;3.50;;;8.90;1.00;;;;;;5012178;28;20393;-88
2023/10/06 03:34:37;;;;;;;4.10;3.20;;;8.00;1.00;;;;;;5013396;28;20393;-87
2023/10/06 03:37:05;;;;;;;5.03;3.57;;;8.40;1.00;;;;;;5014621;28;20415;-88
2023/10/06 03:39:34;;;;;;;4.90;3.40;;;8.80;1.00;;;;;;5013604;28;20393;-87
2023/10/06 03:42:10;;;;;;;5.35;3.72;;;8.30;1.00;;;;;;5016385;28;20416;-88
2023/10/06 03:44:36;;;;;;;6.68;3.83;;;8.70;1.00;;;;;;5016532;28;20544;-87
2023/10/06 03:47:07;;;;;;;6.22;3.50;;;7.90;1.00;;;;;;5024858;28;20966;-87
2023/10/06 03:49:33;;;;;;;5.03;3.80;;;8.80;1.00;;;;;;5034321;28;20505;-88
2023/10/06 03:51:59;;;;;;;3.90;3.50;;;8.90;1.00;;;;;;5023569;28;20388;-88
2023/10/06 03:54:24;;;;;;;5.28;3.50;;;8.20;1.00;;;;;;5025296;28;20399;-88
2023/10/06 03:56:50;;;;;;;5.47;3.50;;;8.60;1.00;;;;;;5020164;28;20397;-88
2023/10/06 03:59:16;;;;;;;4.10;3.40;;;8.40;1.00;;;;;;5029213;28;20544;-88
2023/10/06 04:01:46;;;;;;;4.63;3.65;;;8.30;1.00;;;;;;5017378;28;20405;-87
2023/10/06 04:04:22;;;;;;;5.90;3.40;;;8.10;1.00;;;;;;5013953;28;20413;-87
2023/10/06 04:06:48;;;;;;;7.05;4.30;;;8.20;1.00;;;;;;5015715;28;20829;-88
2023/10/06 04:09:27;;;;;;;4.70;3.55;;;8.50;1.00;;;;;;5031669;28;20400;-88
2023/10/06 04:11:53;;;;;;;5.63;3.80;;;8.30;1.00;;;;;;5027027;28;20867;-88
2023/10/06 04:14:20;;;;;;;6.50;4.07;;;7.20;1.00;;;;;;5036313;28;20395;-89
2023/10/06 04:16:46;;;;;;;6.70;4.47;;;8.50;1.00;;;;;;5035118;28;20732;-89
2023/10/06 04:19:17;;;;;;;5.72;3.67;;;8.40;1.00;;;;;;5035519;28;20441;-88
2023/10/06 04:21:43;;;;;;;5.63;3.47;;;10.60;1.00;;;;;;5035287;28;20514;-89
2023/10/06 04:24:12;;;;;;;3.87;3.33;;;8.40;1.00;;;;;;5023751;28;20528;-88
2023/10/06 04:26:39;;;;;;;6.00;3.92;;;8.20;1.00;;;;;;5020458;28;20447;-88
2023/10/06 04:29:05;;;;;;;6.05;4.30;;;7.90;1.00;;;;;;5014384;28;20760;-88
2023/10/06 04:31:30;;;;;;;5.40;4.40;;;8.50;1.00;;;;;;5013662;28;20389;-88
2023/10/06 04:33:56;;;;;;;4.10;3.60;;;8.10;1.00;;;;;;5012822;28;20412;-88
2023/10/06 04:36:24;;;;;;;4.95;3.30;;;8.30;1.00;;;;;;5028716;28;20393;-89
2023/10/06 04:38:50;;;;;;;5.93;4.07;;;8.00;1.00;;;;;;5024652;28;20466;-88
2023/10/06 04:41:20;;;;;;;4.88;4.00;;;7.50;1.00;;;;;;5023505;28;20975;-89
2023/10/06 04:43:45;;;;;;;6.88;4.40;;;8.60;1.00;;;;;;5028373;28;20405;-89
2023/10/06 04:46:15;;;;;;;6.10;4.40;;;8.20;1.00;;;;;;5016815;28;20389;-87
2023/10/06 04:48:40;;;;;;;5.32;4.18;;;8.40;1.00;;;;;;5014829;28;20408;-87
2023/10/06 04:51:09;;;;;;;6.50;4.00;;;7.70;1.00;;;;;;5020504;28;20388;-88
2023/10/06 04:53:36;;;;;;;7.60;4.80;;;8.50;1.00;;;;;;5015449;28;20400;-88
2023/10/06 04:56:06;;;;;;;6.50;4.20;;;8.40;1.00;;;;;;5030460;28;20475;-88
2023/10/06 04:58:32;;;;;;;5.70;3.92;;;9.80;1.00;;;;;;5033552;28;20409;-88
2023/10/06 05:01:01;;;;;;;5.93;3.92;;;8.10;1.00;;;;;;5032454;28;20389;-88
2023/10/06 05:03:27;;;;;;;6.75;4.10;;;9.00;1.00;;;;;;5028811;28;20438;-86
2023/10/06 05:05:55;;;;;;;6.90;4.70;;;8.00;1.00;;;;;;5028051;28;20392;-88
2023/10/06 05:08:22;;;;;;;5.30;4.15;;;7.60;1.00;;;;;;5022327;28;20761;-87
2023/10/06 05:10:49;;;;;;;6.32;4.88;;;7.60;1.00;;;;;;5019043;28;20393;-87
2023/10/06 05:13:16;;;;;;;5.30;4.20;;;7.50;1.00;;;;;;5023786;28;20908;-87
2023/10/06 05:15:42;;;;;;;8.88;4.60;;;7.20;1.00;;;;;;5021895;28;20391;-84
2023/10/06 05:18:13;;;;;;;5.90;3.97;;;8.00;1.00;;;;;;5024532;28;20491;-89
2023/10/06 05:20:38;;;;;;;6.70;3.83;;;7.90;1.00;;;;;;5030413;28;20402;-89
2023/10/06 05:23:06;;;;;;;7.60;3.90;;;8.10;1.00;;;;;;5018372;28;20393;-90
2023/10/06 05:25:33;;;;;;;5.13;3.65;;;8.30;1.00;;;;;;5034542;28;20414;-88
2023/10/06 05:28:00;;;;;;;6.50;3.80;;;10.00;1.00;;;;;;5034921;28;20579;-89
2023/10/06 05:30:33;;;;;;;6.50;3.90;;;8.30;1.00;;;;;;5028619;28;20387;-89
2023/10/06 05:33:19;;;;;;;4.60;3.70;;;8.50;1.00;;;;;;5029350;28;20907;-89
2023/10/06 05:35:45;;;;;;;6.28;4.50;;;10.00;1.00;;;;;;5023539;28;20399;-89
2023/10/06 05:38:13;;;;;;;4.72;3.60;;;8.40;1.00;;;;;;5024307;28;20437;-89
2023/10/06 05:40:40;;;;;;;5.60;3.90;;;8.20;1.00;;;;;;5014253;28;20414;-88
2023/10/06 05:43:11;;;;;;;6.35;4.00;;;8.40;1.00;;;;;;5021180;28;20449;-90
2023/10/06 05:45:44;;;;;;;6.97;4.00;;;8.40;1.00;;;;;;5033029;28;20475;-88
2023/10/06 05:48:16;;;;;;;4.53;3.70;;;8.80;1.00;;;;;;5018214;28;20410;-88
2023/10/06 05:50:42;;;;;;;5.60;4.22;;;8.50;1.00;;;;;;5031104;28;20474;-88
2023/10/06 05:53:12;;;;;;;6.60;4.00;;;8.50;1.00;;;;;;5032697;28;20423;-88
2023/10/06 05:55:41;;;;;;;6.00;3.50;;;8.90;1.00;;;;;;5033150;28;20383;-88
2023/10/06 05:58:19;;;;;;;4.90;4.00;;;7.80;1.00;;;;;;5032044;28;20391;-88
2023/10/06 06:00:52;;;;;;;5.97;4.20;;;7.90;1.00;;;;;;5031728;28;20410;-87
2023/10/06 06:03:21;;;;;;;4.82;3.63;;;8.00;1.00;;;;;;5032286;28;20395;-87
2023/10/06 06:05:48;;;;;;;5.90;4.70;;;8.10;1.00;;;;;;5031998;28;20407;-88
2023/10/06 06:08:14;;;;;;;6.95;3.40;;;7.60;1.00;;;;;;5031599;28;20383;-88
2023/10/06 06:10:45;;;;;;;6.60;3.83;;;7.50;1.00;;;;;;5033452;28;20399;-87
2023/10/06 06:13:13;;;;;;;4.85;3.60;;;7.80;1.00;;;;;;5031733;28;20466;-87
2023/10/06 06:15:39;;;;;;;6.70;3.90;;;11.80;1.00;;;;;;5030721;28;21052;-87
2023/10/06 06:18:05;;;;;;;6.00;4.20;;;8.00;1.00;;;;;;5043107;28;20395;-87
2023/10/06 06:20:38;;;;;;;5.30;4.10;;;8.50;1.00;;;;;;5044351;28;20407;-90
2023/10/06 06:23:08;;;;;;;7.00;3.50;;;8.30;1.00;;;;;;5032428;28;20403;-88
2023/10/06 06:25:37;;;;;;;5.57;4.45;;;8.10;1.00;;;;;;5031006;28;20406;-87
2023/10/06 06:28:03;;;;;;;5.60;4.60;;;7.30;1.00;;;;;;5031936;28;20387;-87
2023/10/06 06:30:32;;;;;;;6.37;4.37;;;8.30;1.00;;;;;;5031965;28;20958;-89
2023/10/06 06:32:57;;;;;;;5.15;3.70;;;7.00;1.00;;;;;;5031239;28;20844;-87
2023/10/06 06:35:24;;;;;;;5.10;3.93;;;8.20;1.00;;;;;;5033443;28;20514;-87
2023/10/06 06:37:51;;;;;;;5.63;4.30;;;8.20;1.00;;;;;;5035921;28;20395;-88
2023/10/06 06:40:20;;;;;;;5.80;4.25;;;8.50;1.00;;;;;;5038386;28;20391;-88
2023/10/06 06:43:19;;;;;;;4.80;3.90;;;8.00;1.00;;;;;;5051814;28;20450;-87
2023/10/06 06:47:09;;;;;;;5.50;4.00;;;8.60;1.00;;;;;;5028415;28;20449;-87
2023/10/06 06:49:14;;;;;;;7.00;4.20;;;8.80;1.00;;;;;;5012575;28;20950;-85
2023/10/06 06:51:40;;;;;;;5.18;3.63;;;8.60;1.00;;;;;;5022366;28;20399;-84
2023/10/06 06:54:07;;;;;;;6.13;4.38;;;8.90;1.00;;;;;;5030907;28;20418;-84
2023/10/06 06:56:32;;;;;;;6.77;4.07;;;9.20;1.00;;;;;;5030993;28;20874;-84
2023/10/06 06:59:01;;;;;;;4.43;3.67;;;8.30;1.00;;;;;;5019799;28;20416;-84
2023/10/06 07:01:27;;;;;;;5.22;4.00;;;8.60;1.00;;;;;;5021534;28;20414;-84
2023/10/06 07:03:52;;;;;;;6.67;4.40;;;9.80;1.00;;;;;;5036629;28;20484;-84
2023/10/06 07:06:18;;;;;;;5.50;3.53;;;8.80;1.00;;;;;;5025896;28;20399;-84
2023/10/06 07:08:48;;;;;;;5.60;3.80;;;8.80;1.00;;;;;;5027270;28;20826;-84
2023/10/06 07:11:13;;;;;;;6.35;4.45;;;9.30;1.00;;;;;;5025559;28;20396;-84
2023/10/06 07:13:39;;;;;;;4.60;4.00;;;9.10;1.00;;;;;;5030627;28;20403;-84
2023/10/06 07:16:05;;;;;;;9.50;4.70;;;9.00;1.00;;;;;;5024296;28;20881;-86
2023/10/06 07:18:31;;;;;;;5.90;4.00;;;9.10;1.00;;;;;;5022945;28;20498;-84
2023/10/06 07:20:57;;;;;;;4.97;4.32;;;9.60;1.00;;;;;;5023192;28;20405;-84
2023/10/06 07:23:23;;;;;;;6.18;4.03;;;9.10;1.00;;;;;;5023033;28;20396;-84
2023/10/06 07:25:49;;;;;;;5.10;3.93;;;9.10;1.00;;;;;;5020419;28;20504;-84
2023/10/06 07:28:14;;;;;;;4.93;4.40;;;9.20;1.00;;;;;;5022899;28;21079;-85
2023/10/06 07:30:40;;;;;;;8.45;4.45;;;9.60;1.00;;;;;;5025911;28;20966;-84
2023/10/06 07:33:05;;;;;;;6.18;4.20;;;9.60;1.00;;;;;;5015059;28;20954;-84
2023/10/06 07:35:43;;;;;;;5.32;4.35;;;9.50;1.00;;;;;;5029524;28;20895;-84
2023/10/06 07:38:10;;;;;;;5.17;4.17;;;12.00;1.00;;;;;;5037704;28;20444;-84
2023/10/06 07:40:37;;;;;;;5.85;4.25;;;9.60;1.00;;;;;;5033299;28;20399;-85
2023/10/06 07:43:05;;;;;;;5.72;4.15;;;11.70;1.00;;;;;;5036147;28;20391;-85
2023/10/06 07:45:31;;;;;;;6.10;3.90;;;10.40;1.00;;;;;;5052853;22;20416;-79
2023/10/06 07:47:57;;;;;;;5.45;3.90;;;10.40;1.00;;;;;;5033385;28;20392;-78
2023/10/06 07:50:26;;;;;;;6.13;4.20;;;10.60;1.00;;;;;;5034467;28;20464;-78
2023/10/06 07:52:52;;;;;;;7.65;3.88;;;11.70;1.00;;;;;;5034388;28;20388;-78
2023/10/06 07:55:21;;;;;;;6.18;4.60;;;10.40;1.00;;;;;;5033062;28;20393;-78
2023/10/06 07:57:48;;;;;;;6.63;4.23;;;10.80;1.00;;;;;;5034326;28;20399;-78
2023/10/06 08:00:27;;;;;;;5.05;4.40;;;10.90;1.00;;;;;;5034101;28;20387;-78
2023/10/06 08:02:57;;;;;;;4.97;4.00;;;11.00;1.00;;;;;;5037756;28;20405;-77
2023/10/06 08:05:23;;;;;;;4.80;4.30;;;11.20;1.00;;;;;;5043051;28;20887;-78
2023/10/06 08:07:49;;;;;;;4.65;3.95;;;11.30;1.00;;;;;;5035157;28;20395;-78
2023/10/06 08:10:16;;;;;;;6.97;4.72;;;11.40;1.00;;;;;;5033558;28;20395;-79
2023/10/06 08:12:44;;;;;;;5.10;4.60;;;11.40;1.00;;;;;;5032773;28;20399;-79
2023/10/06 08:15:11;;;;;;;4.57;3.72;;;11.70;1.00;;;;;;5033840;28;20391;-78
2023/10/06 08:17:37;;;;;;;3.65;3.05;;;11.90;1.00;;;;;;5034163;28;20387;-78
2023/10/06 08:20:05;;;;;;;5.07;3.70;;;12.00;1.00;;;;;;5033850;28;20405;-78
2023/10/06 08:22:33;;;;;;;5.90;3.70;;;12.30;1.00;;;;;;5032104;28;20470;-78
2023/10/06 08:25:00;;;;;;;4.43;3.33;;;12.40;1.00;;;;;;5032254;28;20406;-78
2023/10/06 08:27:26;;;;;;;5.50;3.65;;;12.40;1.00;;;;;;5033599;28;20390;-78
2023/10/06 08:29:52;;;;;;;5.57;3.50;;;12.60;1.00;;;;;;5033565;28;20383;-78
2023/10/06 08:32:19;;;;;;;4.78;3.20;;;12.50;1.00;;;;;;5033337;28;20387;-78
2023/10/06 08:34:46;;;;;;;5.18;3.53;;;12.70;1.00;;;;;;5032582;28;20395;-78
2023/10/06 08:37:12;;;;;;;3.92;3.17;;;12.90;1.00;;;;;;5032950;28;20411;-79
2023/10/06 08:39:42;;;;;;;4.03;3.40;;;12.70;1.00;;;;;;5033135;28;20395;-78
2023/10/06 08:42:11;;;;;;;4.88;3.53;;;13.10;1.00;;;;;;5033042;28;20886;-78
2023/10/06 08:44:40;;;;;;;4.70;3.00;;;13.10;1.00;;;;;;5033177;28;20438;-78
2023/10/06 08:47:11;;;;;;;3.63;3.20;;;13.30;1.00;;;;;;5032639;28;20399;-79
2023/10/06 08:49:39;;;;;;;5.07;4.00;;;13.30;1.00;;;;;;5032750;28;20390;-78
2023/10/06 08:52:08;;;;;;;4.43;3.80;;;13.10;1.00;;;;;;5032330;28;20395;-78
2023/10/06 08:54:34;;;;;;;8.50;4.70;;;13.30;1.00;;;;;;5033123;28;20402;-78
2023/10/06 08:57:00;;;;;;;6.82;4.43;;;13.50;1.00;;;;;;5031339;28;20402;-78
2023/10/06 08:59:25;;;;;;;6.33;4.37;;;13.60;1.00;;;;;;5032666;28;20763;-78
2023/10/06 09:01:51;;;;;;;5.18;4.20;;;13.50;1.00;;;;;;5032463;28;20399;-78
2023/10/06 09:04:17;;;;;;;7.00;4.77;;;13.70;1.00;;;;;;5033526;28;20403;-78
2023/10/06 09:07:12;;;;;;;7.00;4.50;;;13.60;1.00;;;;;;5032580;28;20387;-78
2023/10/06 09:09:40;;;;;;;9.25;4.75;;;13.90;1.00;;;;;;5032808;28;20384;-78
2023/10/06 09:12:07;;;;;;;6.10;4.60;;;14.00;1.00;;;;;;5031552;28;20915;-78
2023/10/06 09:14:33;;;;;;;8.15;5.35;;;14.60;1.00;;;;;;5031116;28;20469;-78
2023/10/06 09:17:01;;;;;;;6.50;4.68;;;14.50;1.00;;;;;;5031048;28;20418;-78
2023/10/06 09:19:46;;;;;;;7.72;5.10;;;14.20;1.00;;;;;;5030837;28;20391;-78
2023/10/06 09:22:11;;;;;;;7.10;4.70;;;14.40;1.00;;;;;;5012460;28;20476;-79
2023/10/06 09:24:39;;;;;;;9.90;5.27;;;14.00;1.00;;;;;;5013178;28;20542;-78
2023/10/06 09:27:21;;;;;;;6.78;4.70;;;14.20;1.00;;;;;;5031462;28;20395;-78
2023/10/06 09:29:47;;;;;;;11.03;4.10;;;14.20;1.00;;;;;;5032071;28;20387;-78
2023/10/06 09:32:20;;;;;;;6.27;3.90;;;13.80;1.00;;;;;;5031953;28;20466;-78
2023/10/06 09:34:46;;;;;;;7.60;4.80;;;14.10;1.00;;;;;;5031778;28;20477;-78
2023/10/06 09:37:21;;;;;;;7.53;4.40;;;14.10;1.00;;;;;;5031729;28;20499;-78
2023/10/06 09:39:58;;;;;;;7.90;4.47;;;14.10;1.00;;;;;;5032300;28;20399;-79
2023/10/06 09:42:30;;;;;;;5.90;4.00;;;14.50;1.00;;;;;;5030487;28;20391;-78
2023/10/06 09:45:07;;;;;;;5.93;4.22;;;14.40;1.00;;;;;;5029310;28;20456;-78
2023/10/06 09:47:41;;;;;;;7.15;4.30;;;14.60;1.00;;;;;;5030145;28;20494;-78
2023/10/06 09:50:08;;;;;;;5.57;4.07;;;14.10;1.00;;;;;;5030417;28;20778;-78
2023/10/06 09:52:34;;;;;;;5.82;4.30;;;14.50;1.00;;;;;;5031345;28;20383;-78
2023/10/06 09:55:04;;;;;;;6.72;4.18;;;14.30;1.00;;;;;;5031337;28;20767;-78
2023/10/06 09:57:32;;;;;;;7.30;4.90;;;14.50;1.00;;;;;;5031852;28;20834;-78
2023/10/06 10:00:00;;;;;;;5.55;4.00;;;14.30;1.00;;;;;;5030306;28;20780;-78
2023/10/06 10:02:29;;;;;;;10.75;5.95;;;14.70;1.00;;;;;;5031149;28;20394;-78
2023/10/06 10:04:59;;;;;;;6.93;4.43;;;14.60;1.00;;;;;;5030886;28;20964;-78
2023/10/06 10:07:28;;;;;;;6.07;4.17;;;15.10;1.00;;;;;;5030840;28;20444;-78
2023/10/06 10:09:55;;;;;;;6.57;4.25;;;15.20;1.00;;;;;;5032149;28;20379;-78
2023/10/06 10:13:07;;;;;;;8.60;4.07;;;15.30;1.00;;;;;;5029894;28;20505;-78
2023/10/06 10:16:18;;;;;;;7.93;5.00;;;15.60;1.00;;;;;;5011944;28;20420;-78
2023/10/06 10:18:54;;;;;;;5.93;4.20;;;15.70;1.00;;;;;;5030906;28;20390;-78
2023/10/06 10:21:22;;;;;;;6.20;4.10;;;16.00;1.00;;;;;;5032089;28;20487;-78
2023/10/06 10:23:48;;;;;;;6.40;4.40;;;15.80;1.00;;;;;;5030996;28;20984;-78
2023/10/06 10:26:18;;;;;;;6.32;4.40;;;15.60;1.00;;;;;;5031056;28;20399;-78
2023/10/06 10:29:04;;;;;;;5.97;4.00;;;15.80;1.00;;;;;;5031308;28;20910;-78
2023/10/06 10:31:36;;;;;;;6.10;4.80;;;15.90;1.00;;;;;;5030334;28;20430;-78
2023/10/06 10:34:02;;;;;;;8.07;4.40;;;15.90;1.00;;;;;;5031806;28;20407;-78
2023/10/06 10:36:27;;;;;;;7.40;4.00;;;16.00;1.00;;;;;;5031354;28;20387;-78
2023/10/06 10:38:59;;;;;;;6.43;4.32;;;16.30;1.00;;;;;;5031227;28;20755;-78
2023/10/06 10:41:27;;;;;;;8.90;4.80;;;16.00;1.00;;;;;;5031185;28;20524;-78
2023/10/06 10:43:55;;;;;;;4.90;3.40;;;16.00;1.00;;;;;;5030849;28;20395;-78
2023/10/06 10:46:42;;;;;;;6.07;3.78;;;16.40;1.00;;;;;;5030840;28;20403;-78
2023/10/06 10:49:09;;;;;;;7.88;3.80;;;17.60;1.00;;;;;;5031701;28;20415;-78
2023/10/06 10:52:02;;;;;;;6.50;3.60;;;16.40;1.00;;;;;;5036724;28;20555;-78
2023/10/06 10:54:30;;;;;;;6.90;3.67;;;16.70;1.00;;;;;;5033539;28;21094;-78
2023/10/06 10:57:02;;;;;;;7.07;3.70;;;16.90;1.00;;;;;;5031782;28;20826;-79
2023/10/06 11:02:44;;;;;;;6.07;4.20;;;17.80;1.00;;;;;;5031579;28;20790;-79
2023/10/06 11:05:09;;;;;;;5.30;3.70;;;17.90;1.00;;;;;;5031471;28;20411;-78
2023/10/06 11:07:35;;;;;;;7.50;4.47;;;17.40;1.00;;;;;;5031010;28;20445;-78
2023/10/06 11:10:03;;;;;;;5.63;3.60;;;17.30;1.00;;;;;;5031441;28;20512;-78
2023/10/06 11:12:30;;;;;;;5.32;3.90;;;18.00;1.00;;;;;;5029567;28;20410;-78
2023/10/06 11:15:13;;;;;;;6.60;3.45;;;18.20;1.00;;;;;;5030920;28;20386;-78
2023/10/06 11:17:41;;;;;;;8.20;4.07;;;18.80;1.00;;;;;;5031289;28;20890;-78
2023/10/06 11:23:03;;;;;;;5.78;3.50;;;19.70;1.00;;;;;;5033453;28;20395;-77
2023/10/06 11:25:32;;;;;;;5.67;3.20;;;19.80;1.00;;;;;;5037976;28;20819;-78
2023/10/06 11:28:08;;;;;;;6.13;3.63;;;20.80;1.00;;;;;;5039256;28;20391;-79
2023/10/06 11:30:38;;;;;;;6.78;3.63;;;22.60;1.00;;;;;;5037297;28;20380;-78
2023/10/06 11:33:05;;;;;;;6.00;3.72;;;22.00;1.00;;;;;;5037380;28;20407;-79
2023/10/06 11:35:33;;;;;;;5.55;3.80;;;21.70;1.00;;;;;;5037029;28;20383;-79
2023/10/06 11:37:59;;;;;;;5.90;3.63;;;21.70;1.00;;;;;;5038144;28;20437;-79
2023/10/06 11:40:25;;;;;;;5.10;3.70;;;21.50;1.00;;;;;;5036423;28;20391;-78
2023/10/06 11:42:52;;;;;;;5.38;3.70;;;22.80;1.00;;;;;;5034180;28;20390;-79
2023/10/06 11:45:26;;;;;;;5.15;3.22;;;23.10;1.00;;;;;;5024888;28;20413;-79
2023/10/06 11:47:53;;;;;;;4.22;3.00;;;22.20;1.00;;;;;;5013379;28;20480;-79
2023/10/06 11:50:26;;;;;;;4.10;3.50;;;22.00;1.00;;;;;;5018286;28;20391;-78
2023/10/06 11:52:52;;;;;;;5.78;3.60;;;22.70;1.00;;;;;;5033969;28;20419;-79
2023/10/06 11:55:26;;;;;;;5.47;2.90;;;21.90;1.00;;;;;;5034146;28;20497;-78
2023/10/06 11:57:51;;;;;;;6.38;3.40;;;22.50;1.00;;;;;;5034297;28;20387;-79
2023/10/06 12:00:32;;;;;;;5.68;3.33;;;23.00;1.00;;;;;;5033065;28;20441;-78
2023/10/06 12:02:57;;;;;;;5.80;3.45;;;21.90;1.00;;;;;;5033089;28;20395;-78
2023/10/06 12:05:23;;;;;;;8.00;4.10;;;21.80;1.00;;;;;;5032932;28;20787;-77
2023/10/06 12:07:49;;;;;;;4.30;3.42;;;20.90;1.00;;;;;;5033331;28;20406;-78
2023/10/06 12:10:21;;;;;;;7.35;3.65;;;21.20;1.00;;;;;;5032480;28;20470;-78
2023/10/06 12:12:49;;;;;;;5.10;3.92;;;21.00;1.00;;;;;;5033305;28;20474;-78
2023/10/06 12:15:15;;;;;;;4.55;3.70;;;22.00;1.00;;;;;;5032137;28;20422;-78
2023/10/06 12:17:41;;;;;;;5.82;3.38;;;21.40;1.00;;;;;;5032899;28;20403;-78
2023/10/06 12:20:16;;;;;;;4.07;2.80;;;21.20;1.00;;;;;;5033281;28;20418;-78
2023/10/06 12:22:43;;;;;;;4.82;3.35;;;20.60;1.00;;;;;;5032994;28;20814;-78
2023/10/06 12:25:14;;;;;;;5.53;3.28;;;21.60;1.00;;;;;;5031829;28;20411;-78
2023/10/06 12:27:43;;;;;;;5.65;3.15;;;20.80;1.00;;;;;;5033178;28;20390;-78
2023/10/06 12:30:10;;;;;;;4.70;3.50;;;20.30;1.00;;;;;;5012840;28;20488;-78
2023/10/06 12:32:36;;;;;;;6.13;3.50;;;20.20;1.00;;;;;;5013392;28;20385;-78
2023/10/06 12:35:05;;;;;;;4.57;3.40;;;21.50;1.00;;;;;;5027706;28;20460;-78
2023/10/06 12:37:40;;;;;;;4.50;3.40;;;20.10;1.00;;;;;;5033003;28;20387;-78
2023/10/06 12:40:08;;;;;;;5.13;3.40;;;20.30;1.00;;;;;;5031456;28;20452;-78
2023/10/06 12:42:42;;;;;;;5.10;3.60;;;20.90;1.00;;;;;;5033161;28;20395;-78
2023/10/06 12:45:19;;;;;;;5.68;3.60;;;20.80;1.00;;;;;;5024270;28;20480;-78
2023/10/06 12:47:46;;;;;;;8.05;3.10;;;21.40;1.00;;;;;;5013263;28;20408;-78
2023/10/06 12:50:20;;;;;;;4.68;3.22;;;20.50;1.00;;;;;;5012816;28;20380;-78
2023/10/06 12:52:52;;;;;;;7.07;3.70;;;20.70;1.00;;;;;;5029417;28;20763;-77
2023/10/06 12:55:22;;;;;;;4.70;3.13;;;20.70;1.00;;;;;;5038402;28;20383;-77
2023/10/06 12:57:51;;;;;;;4.10;3.10;;;20.70;1.00;;;;;;5038530;28;20414;-77
2023/10/06 13:00:19;;;;;;;4.70;3.40;;;20.80;1.00;;;;;;5038804;28;20387;-78
2023/10/06 13:02:48;;;;;;;4.97;3.30;;;20.80;1.00;;;;;;5031201;28;20991;-78
2023/10/06 13:05:16;;;;;;;5.20;3.17;;;20.80;1.00;;;;;;5032979;28;20422;-77
2023/10/06 13:07:46;;;;;;;4.60;3.10;;;21.00;1.00;;;;;;5035511;28;20394;-76
2023/10/06 13:10:15;;;;;;;4.70;3.57;;;21.20;1.00;;;;;;5037280;28;20452;-77
2023/10/06 13:12:41;;;;;;;4.85;3.35;;;20.60;1.00;;;;;;5038155;28;20416;-77
2023/10/06 13:15:09;;;;;;;5.60;2.95;;;20.60;1.00;;;;;;5038888;28;20494;-77
2023/10/06 13:17:35;;;;;;;6.60;3.60;;;20.00;1.00;;;;;;5038018;28;20424;-77
2023/10/06 13:20:01;;;;;;;5.07;3.67;;;20.70;1.00;;;;;;5037012;28;20422;-77
2023/10/06 13:22:28;;;;;;;4.10;3.03;;;20.10;1.00;;;;;;5036226;28;20528;-78
2023/10/06 13:24:57;;;;;;;3.67;3.10;;;19.90;1.00;;;;;;5032507;28;20450;-77